Time;durP1;ratioP1;P1;durP2;ratioP2;P2;SDS_P1;SDS_P2;PMS_P1;PMS_P2;Temp;Humidity;BMP_temperature;BMP_pressure;BME280_temperature;BME280_humidity;BME280_pressure;Samples;Min_cycle;Max_cycle;Signal;HPM_P1;HPM_P2
2022/02/18 00:01:41;;;;;;;5.90;0.88;;;6.60;93.50;;;;;;5071442;28;20347;-79
2022/02/18 00:04:07;;;;;;;;;;;6.60;89.00;;;;;;5074239;28;20024;-78
2022/02/18 00:06:33;;;;;;;4.22;1.00;;;6.60;90.70;;;;;;5074147;28;19916;-78
2022/02/18 00:08:59;;;;;;;;;;;6.60;92.10;;;;;;5077532;28;20809;-78
2022/02/18 00:11:24;;;;;;;7.53;1.30;;;6.50;91.80;;;;;;5074695;28;20420;-78
2022/02/18 00:13:50;;;;;;;8.65;1.27;;;6.40;93.20;;;;;;5075185;28;20032;-77
2022/02/18 00:16:16;;;;;;;;;;;6.50;94.10;;;;;;5075077;28;20044;-80
2022/02/18 00:18:41;;;;;;;5.03;0.60;;;6.40;95.10;;;;;;5076597;28;20046;-79
2022/02/18 00:21:07;;;;;;;;;;;6.40;96.20;;;;;;5074800;28;20055;-79
2022/02/18 00:23:33;;;;;;;11.10;1.77;;;6.40;97.90;;;;;;5073378;28;20768;-78
2022/02/18 00:25:58;;;;;;;;;;;6.40;98.50;;;;;;5075217;28;20045;-79
2022/02/18 00:28:24;;;;;;;4.38;0.88;;;6.40;99.90;;;;;;5073429;28;19916;-78
2022/02/18 00:30:50;;;;;;;7.82;1.17;;;6.40;99.90;;;;;;5073759;28;20046;-78
2022/02/18 00:33:16;;;;;;;9.80;1.20;;;6.40;99.90;;;;;;5074443;28;20028;-78
2022/02/18 00:35:41;;;;;;;;;;;6.30;99.90;;;;;;5074782;28;20473;-78
2022/02/18 00:38:08;;;;;;;8.68;1.38;;;6.30;99.90;;;;;;5074310;28;19908;-78
2022/02/18 00:40:34;;;;;;;6.50;1.27;;;6.30;99.90;;;;;;5073819;28;20123;-78
2022/02/18 00:42:59;;;;;;;;;;;6.30;99.90;;;;;;5077136;28;20033;-78
2022/02/18 00:45:25;;;;;;;6.63;1.52;;;6.30;99.90;;;;;;5074813;28;19922;-79
2022/02/18 00:47:51;;;;;;;9.57;1.30;;;6.30;99.90;;;;;;5076900;28;20029;-79
2022/02/18 00:50:18;;;;;;;12.23;2.53;;;6.30;99.90;;;;;;5074702;28;20032;-79
2022/02/18 00:52:44;;;;;;;13.02;1.70;;;6.30;99.90;;;;;;5076731;28;20029;-79
2022/02/18 00:55:11;;;;;;;17.80;3.20;;;6.30;99.90;;;;;;5074140;28;20028;-78
2022/02/18 00:57:37;;;;;;;10.32;1.55;;;6.40;99.90;;;;;;5075426;28;20027;-79
2022/02/18 01:00:04;;;;;;;;;;;6.40;99.90;;;;;;5076946;28;20101;-78
2022/02/18 01:02:29;;;;;;;6.93;1.20;;;6.30;99.90;;;;;;5076456;28;19954;-80
2022/02/18 01:04:55;;;;;;;8.45;1.20;;;6.40;99.90;;;;;;5075836;28;20032;-79
2022/02/18 01:07:23;;;;;;;;;;;6.30;99.90;;;;;;5076322;28;20040;-79
2022/02/18 01:09:49;;;;;;;7.28;1.42;;;6.30;99.90;;;;;;5077278;28;19931;-79
2022/02/18 01:12:14;;;;;;;;;;;6.30;99.90;;;;;;5080904;28;20024;-79
2022/02/18 01:14:40;;;;;;;9.85;2.72;;;6.30;99.90;;;;;;5087051;28;19904;-79
2022/02/18 01:17:06;;;;;;;;;;;6.30;99.90;;;;;;5081672;28;20124;-79
2022/02/18 01:19:31;;;;;;;11.45;1.52;;;6.20;99.90;;;;;;5072352;28;19981;-79
2022/02/18 01:21:57;;;;;;;7.32;1.33;;;6.30;99.90;;;;;;5072099;28;20037;-78
2022/02/18 01:24:23;;;;;;;9.95;1.48;;;6.30;99.90;;;;;;5071930;28;20111;-77
2022/02/18 01:26:48;;;;;;;;;;;6.30;99.90;;;;;;5073554;28;20029;-79
2022/02/18 01:29:14;;;;;;;6.78;1.40;;;6.40;99.90;;;;;;5072865;28;20458;-77
2022/02/18 01:31:39;;;;;;;7.90;0.98;;;6.60;99.90;;;;;;5072282;28;20119;-79
2022/02/18 01:34:05;;;;;;;;;;;6.70;99.90;;;;;;5074549;28;20047;-78
2022/02/18 01:36:31;;;;;;;6.35;0.98;;;6.90;99.90;;;;;;5072015;28;20362;-77
2022/02/18 01:38:56;;;;;;;;;;;6.90;99.90;;;;;;5072319;28;20389;-77
2022/02/18 01:41:22;;;;;;;4.32;0.80;;;6.80;99.90;;;;;;5071993;28;20361;-78
2022/02/18 01:43:54;;;;;;;;;;;6.80;99.90;;;;;;5072653;28;20083;-78
2022/02/18 01:46:21;;;;;;;5.18;0.80;;;6.70;99.90;;;;;;5072104;28;19915;-77
2022/02/18 01:48:48;;;;;;;6.38;0.95;;;6.70;99.90;;;;;;5071910;28;20074;-78
2022/02/18 01:51:17;;;;;;;3.60;0.40;;;6.60;99.90;;;;;;5071149;28;20028;-78
2022/02/18 01:53:43;;;;;;;2.78;0.88;;;6.50;99.90;;;;;;5072120;28;20066;-78
2022/02/18 01:56:09;;;;;;;;;;;6.50;99.90;;;;;;5072388;28;20033;-80
2022/02/18 01:58:35;;;;;;;1.40;0.40;;;6.50;99.90;;;;;;5072622;28;20303;-79
2022/02/18 02:01:00;;;;;;;;;;;6.40;99.90;;;;;;5073633;28;20485;-79
2022/02/18 02:03:26;;;;;;;3.63;0.40;;;6.30;99.90;;;;;;5073063;28;20011;-79
2022/02/18 02:05:55;;;;;;;;;;;6.20;99.90;;;;;;5074464;28;20465;-79
2022/02/18 02:08:22;;;;;;;3.22;0.30;;;6.20;99.90;;;;;;5073158;28;20339;-79
2022/02/18 02:10:47;;;;;;;0.80;0.30;;;6.20;99.90;;;;;;5072636;28;20086;-79
2022/02/18 02:13:28;;;;;;;;;;;6.20;99.90;;;;;;5074993;28;20028;-78
2022/02/18 02:15:54;;;;;;;2.05;0.50;;;6.30;99.90;;;;;;5071847;28;20301;-78
2022/02/18 02:18:20;;;;;;;3.10;0.20;;;6.30;99.90;;;;;;5069669;28;20527;-78
2022/02/18 02:20:45;;;;;;;2.33;0.40;;;6.30;99.90;;;;;;5069627;28;20056;-79
2022/02/18 02:23:11;;;;;;;1.50;0.30;;;6.40;99.90;;;;;;5070295;28;20036;-78
2022/02/18 02:25:39;;;;;;;1.20;0.40;;;6.30;99.90;;;;;;5070101;28;20037;-78
2022/02/18 02:28:05;;;;;;;0.65;0.20;;;6.40;99.90;;;;;;5069722;28;20409;-78
2022/02/18 02:30:30;;;;;;;0.75;0.20;;;6.20;99.90;;;;;;5069680;28;20032;-78
2022/02/18 02:32:56;;;;;;;;;;;6.10;99.90;;;;;;5071970;28;20032;-78
2022/02/18 02:35:22;;;;;;;1.80;0.40;;;6.00;99.90;;;;;;5071435;28;19958;-79
2022/02/18 02:37:47;;;;;;;;;;;6.00;99.90;;;;;;5071441;28;20024;-78
2022/02/18 02:40:18;;;;;;;0.85;0.25;;;5.90;99.90;;;;;;5071265;28;19912;-78
2022/02/18 02:42:44;;;;;;;2.28;0.30;;;5.70;99.90;;;;;;5071844;28;20523;-78
2022/02/18 02:45:10;;;;;;;3.10;0.50;;;5.70;99.90;;;;;;5071049;28;20082;-77
2022/02/18 02:47:39;;;;;;;;;;;5.70;99.90;;;;;;5069402;28;20024;-78
2022/02/18 02:50:06;;;;;;;3.55;0.38;;;5.70;99.90;;;;;;5069651;28;19908;-78
2022/02/18 02:52:31;;;;;;;1.23;0.28;;;5.70;99.90;;;;;;5068788;28;20025;-79
2022/02/18 02:54:57;;;;;;;;;;;5.70;99.90;;;;;;5070276;28;20031;-78
2022/02/18 02:57:23;;;;;;;0.93;0.30;;;5.60;99.90;;;;;;5069448;28;20571;-79
2022/02/18 02:59:48;;;;;;;;;;;5.60;99.90;;;;;;5069386;28;20039;-78
2022/02/18 03:02:14;;;;;;;1.35;0.38;;;5.60;99.90;;;;;;5070132;28;19999;-78
2022/02/18 03:04:39;;;;;;;;;;;5.60;99.90;;;;;;5070038;28;20024;-78
2022/02/18 03:07:05;;;;;;;1.80;0.20;;;5.50;99.90;;;;;;5070236;28;19909;-78
2022/02/18 03:09:31;;;;;;;0.90;0.20;;;5.50;99.90;;;;;;5071295;28;20032;-78
2022/02/18 03:11:56;;;;;;;;;;;5.50;99.90;;;;;;5071077;28;20619;-78
2022/02/18 03:14:24;;;;;;;1.35;0.30;;;5.60;99.90;;;;;;5070847;28;20346;-78
2022/02/18 03:16:50;;;;;;;0.40;0.25;;;5.40;99.90;;;;;;5071067;28;20028;-79
2022/02/18 03:19:15;;;;;;;;;;;5.40;99.90;;;;;;5073038;28;20058;-78
2022/02/18 03:21:41;;;;;;;1.38;0.30;;;5.50;99.90;;;;;;5072747;28;20073;-78
2022/02/18 03:24:07;;;;;;;2.05;0.40;;;5.40;99.90;;;;;;5070969;28;20055;-78
2022/02/18 03:26:32;;;;;;;1.83;0.45;;;5.30;99.90;;;;;;5071571;28;20059;-78
2022/02/18 03:28:58;;;;;;;;;;;5.30;99.90;;;;;;5072024;28;20138;-78
2022/02/18 03:31:23;;;;;;;2.05;0.40;;;5.40;99.90;;;;;;5072943;28;19999;-79
2022/02/18 03:33:49;;;;;;;1.52;0.50;;;5.40;99.90;;;;;;5072298;28;20529;-78
2022/02/18 03:36:15;;;;;;;1.42;0.45;;;5.40;99.90;;;;;;5072687;28;20605;-79
2022/02/18 03:38:40;;;;;;;;;;;5.40;99.90;;;;;;5071643;28;20097;-78
2022/02/18 03:41:06;;;;;;;4.28;0.47;;;5.40;99.90;;;;;;5072497;28;19990;-78
2022/02/18 03:43:31;;;;;;;;;;;5.40;99.90;;;;;;5075747;28;20030;-78
2022/02/18 03:45:57;;;;;;;3.17;0.70;;;5.40;99.90;;;;;;5076429;28;19911;-79
2022/02/18 03:48:23;;;;;;;4.05;0.93;;;5.40;99.90;;;;;;5077534;28;20020;-79
2022/02/18 03:50:48;;;;;;;;;;;5.60;99.90;;;;;;5077935;28;20037;-79
2022/02/18 03:53:14;;;;;;;1.35;0.30;;;5.50;99.90;;;;;;5076724;28;20400;-79
2022/02/18 03:55:40;;;;;;;;;;;5.50;99.90;;;;;;5081390;28;20523;-79
2022/02/18 03:58:06;;;;;;;1.90;0.65;;;5.50;99.90;;;;;;5085555;28;19943;-78
2022/02/18 04:00:31;;;;;;;2.85;0.70;;;5.50;99.90;;;;;;5081464;28;20068;-78
2022/02/18 04:02:57;;;;;;;5.57;0.73;;;5.40;99.90;;;;;;5075251;28;20029;-79
2022/02/18 04:05:22;;;;;;;2.33;0.50;;;5.40;99.90;;;;;;5073646;28;20032;-78
2022/02/18 04:07:48;;;;;;;3.60;0.60;;;5.40;99.90;;;;;;5073298;28;20040;-79
2022/02/18 04:10:14;;;;;;;;;;;5.50;99.90;;;;;;5075679;28;20044;-79
2022/02/18 04:12:40;;;;;;;5.05;1.15;;;5.50;99.90;;;;;;5074368;28;19909;-80
2022/02/18 04:15:06;;;;;;;4.13;0.77;;;5.50;99.90;;;;;;5073225;28;20025;-78
2022/02/18 04:17:33;;;;;;;5.78;0.90;;;5.50;99.90;;;;;;5073456;28;20028;-78
2022/02/18 04:19:59;;;;;;;5.22;0.88;;;5.50;99.90;;;;;;5072797;28;20036;-78
2022/02/18 04:22:25;;;;;;;;;;;5.50;99.90;;;;;;5074788;28;20048;-79
2022/02/18 04:24:50;;;;;;;4.70;1.17;;;5.60;99.90;;;;;;5074594;28;19961;-79
2022/02/18 04:27:16;;;;;;;;;;;5.60;99.90;;;;;;5073386;28;20503;-79
2022/02/18 04:29:43;;;;;;;9.63;1.77;;;5.70;99.90;;;;;;5075247;28;20373;-79
2022/02/18 04:32:09;;;;;;;4.20;0.70;;;5.70;99.90;;;;;;5076214;28;20036;-79
2022/02/18 04:34:34;;;;;;;7.43;1.42;;;5.70;99.90;;;;;;5077250;28;20034;-79
2022/02/18 04:37:00;;;;;;;;;;;5.60;99.90;;;;;;5078605;28;20111;-80
2022/02/18 04:39:26;;;;;;;6.55;0.90;;;5.60;99.90;;;;;;5078584;28;19914;-79
2022/02/18 04:41:51;;;;;;;;;;;5.70;99.90;;;;;;5079640;28;20496;-80
2022/02/18 04:44:17;;;;;;;5.90;0.70;;;5.60;99.90;;;;;;5079622;28;19982;-80
2022/02/18 04:46:44;;;;;;;6.03;1.08;;;5.60;99.90;;;;;;5078489;28;20021;-79
2022/02/18 04:49:09;;;;;;;8.05;1.20;;;5.50;99.90;;;;;;5078120;28;20079;-80
2022/02/18 04:51:38;;;;;;;;;;;5.50;99.90;;;;;;5076567;28;20033;-79
2022/02/18 04:54:05;;;;;;;6.82;1.63;;;5.50;99.90;;;;;;5076298;28;19908;-79
2022/02/18 04:56:31;;;;;;;6.22;1.05;;;5.60;99.90;;;;;;5079299;28;20039;-80
2022/02/18 04:58:57;;;;;;;7.53;1.60;;;5.60;99.90;;;;;;5079415;28;20021;-80
2022/02/18 05:01:23;;;;;;;8.38;1.13;;;5.60;99.90;;;;;;5080998;28;20043;-80
2022/02/18 05:03:50;;;;;;;;;;;5.70;99.90;;;;;;5080292;28;20078;-80
2022/02/18 05:06:16;;;;;;;;;;;5.70;99.90;;;;;;5080586;28;19944;-81
2022/02/18 05:08:42;;;;;;;7.80;1.55;;;5.80;99.90;;;;;;5080473;28;19915;-80
2022/02/18 05:11:07;;;;;;;6.00;1.40;;;5.80;99.90;;;;;;5080893;28;20128;-80
2022/02/18 05:13:33;;;;;;;;;;;5.80;99.90;;;;;;5081503;28;20511;-80
2022/02/18 05:16:01;;;;;;;10.25;1.08;;;5.80;99.90;;;;;;5080403;28;19940;-80
2022/02/18 05:18:27;;;;;;;5.68;1.17;;;5.80;99.90;;;;;;5079426;28;20035;-81
2022/02/18 05:20:52;;;;;;;9.25;1.70;;;5.80;99.90;;;;;;5079290;28;20037;-79
2022/02/18 05:23:18;;;;;;;10.45;3.08;;;5.80;99.90;;;;;;5080729;28;20037;-80
2022/02/18 05:25:44;;;;;;;9.40;2.92;;;5.80;99.90;;;;;;5080246;28;20039;-80
2022/02/18 05:28:10;;;;;;;;;;;5.70;99.90;;;;;;5079602;28;20115;-79
2022/02/18 05:30:35;;;;;;;5.50;1.08;;;5.70;99.90;;;;;;5080438;28;19904;-80
2022/02/18 05:33:01;;;;;;;;;;;5.60;99.90;;;;;;5080077;28;20035;-81
2022/02/18 05:35:28;;;;;;;6.03;1.17;;;5.60;99.90;;;;;;5081042;28;20407;-80
2022/02/18 05:37:53;;;;;;;9.50;1.45;;;5.60;99.90;;;;;;5079696;28;20029;-80
2022/02/18 05:40:19;;;;;;;;;;;5.60;99.90;;;;;;5079046;28;20485;-79
2022/02/18 05:42:44;;;;;;;7.45;1.42;;;5.60;99.90;;;;;;5073660;28;20788;-78
2022/02/18 05:45:10;;;;;;;;;;;5.60;99.90;;;;;;5072089;28;20024;-78
2022/02/18 05:47:37;;;;;;;8.00;1.40;;;5.60;99.90;;;;;;5072201;28;19908;-79
2022/02/18 05:50:12;;;;;;;4.75;1.30;;;5.60;99.90;;;;;;5072549;28;20035;-78
2022/02/18 05:52:39;;;;;;;7.03;0.98;;;5.60;99.90;;;;;;5074336;28;20028;-78
2022/02/18 05:55:05;;;;;;;4.50;1.10;;;5.60;99.90;;;;;;5081144;28;20032;-79
2022/02/18 05:57:31;;;;;;;4.55;1.00;;;5.70;99.90;;;;;;5075015;28;20024;-78
2022/02/18 05:59:57;;;;;;;;;;;5.70;99.90;;;;;;5076241;28;20074;-79
2022/02/18 06:02:23;;;;;;;6.82;1.20;;;5.60;99.90;;;;;;5077189;28;19953;-78
2022/02/18 06:04:48;;;;;;;10.18;1.80;;;5.70;99.90;;;;;;5072923;28;20135;-79
2022/02/18 06:07:17;;;;;;;9.93;2.50;;;5.60;99.90;;;;;;5072897;28;20566;-78
2022/02/18 06:09:44;;;;;;;11.70;2.13;;;5.70;99.90;;;;;;5073404;28;20097;-78
2022/02/18 06:12:10;;;;;;;8.02;2.08;;;5.70;99.90;;;;;;5073949;28;20028;-79
2022/02/18 06:14:36;;;;;;;6.78;2.15;;;5.70;99.90;;;;;;5074925;28;20048;-78
2022/02/18 06:17:05;;;;;;;;;;;5.70;99.90;;;;;;5072170;28;20067;-77
2022/02/18 06:19:32;;;;;;;4.00;1.35;;;5.70;99.90;;;;;;5071925;28;19947;-78
2022/02/18 06:21:57;;;;;;;10.35;2.22;;;5.60;99.90;;;;;;5071727;28;20075;-78
2022/02/18 06:24:23;;;;;;;;;;;5.60;99.90;;;;;;5072769;28;20485;-79
2022/02/18 06:26:49;;;;;;;13.98;3.00;;;5.70;99.90;;;;;;5072321;28;19951;-78
2022/02/18 06:29:14;;;;;;;12.50;2.42;;;5.60;99.90;;;;;;5072435;28;20115;-78
2022/02/18 06:31:40;;;;;;;;;;;5.60;99.90;;;;;;5074377;28;20076;-79
2022/02/18 06:34:05;;;;;;;9.02;1.60;;;5.70;99.90;;;;;;5077600;28;19908;-78
2022/02/18 06:36:31;;;;;;;;;;;5.80;99.90;;;;;;5082649;28;20039;-79
2022/02/18 06:38:57;;;;;;;7.90;1.73;;;5.80;99.90;;;;;;5076902;28;20373;-79
2022/02/18 06:41:22;;;;;;;;;;;6.00;99.90;;;;;;5072128;28;20505;-78
2022/02/18 06:43:48;;;;;;;8.30;1.42;;;6.20;99.90;;;;;;5073044;28;20422;-78
2022/02/18 06:46:13;;;;;;;9.35;1.38;;;6.60;99.90;;;;;;5070461;28;20031;-76
2022/02/18 06:48:39;;;;;;;;;;;7.30;99.70;;;;;;5072141;28;20020;-76
2022/02/18 06:51:05;;;;;;;7.32;1.35;;;8.00;94.10;;;;;;5068602;28;19912;-80
2022/02/18 06:53:31;;;;;;;9.48;1.48;;;8.70;92.20;;;;;;5068432;28;20032;-78
2022/02/18 06:55:57;;;;;;;;;;;9.40;82.70;;;;;;5069041;28;20074;-80
2022/02/18 06:58:23;;;;;;;12.45;3.58;;;10.10;74.00;;;;;;5067385;28;19908;-79
2022/02/18 07:00:51;;;;;;;9.05;1.50;;;10.60;67.40;;;;;;5067263;28;20036;-80
2022/02/18 07:03:19;;;;;;;3.97;1.08;;;11.00;65.10;;;;;;5068342;28;20034;-81
2022/02/18 07:05:45;;;;;;;5.25;1.75;;;11.50;62.60;;;;;;5068442;28;20428;-79
2022/02/18 07:08:10;;;;;;;;;;;12.00;59.70;;;;;;5067585;28;20036;-76
2022/02/18 07:10:36;;;;;;;9.20;1.85;;;12.40;58.10;;;;;;5068453;28;19908;-77
2022/02/18 07:13:02;;;;;;;10.27;1.92;;;12.80;56.10;;;;;;5067016;28;20767;-76
2022/02/18 07:15:28;;;;;;;;;;;13.30;54.30;;;;;;5068621;28;20035;-78
2022/02/18 07:17:55;;;;;;;14.50;1.75;;;13.60;51.00;;;;;;5067443;28;19908;-78
2022/02/18 07:20:22;;;;;;;6.70;0.95;;;13.80;49.90;;;;;;5068607;28;20064;-79
2022/02/18 07:22:47;;;;;;;5.65;1.20;;;14.00;48.30;;;;;;5068155;28;20097;-79
2022/02/18 07:25:14;;;;;;;;;;;14.10;48.40;;;;;;5069007;28;20048;-78
2022/02/18 07:27:40;;;;;;;8.43;1.52;;;14.00;48.00;;;;;;5067026;28;19909;-77
2022/02/18 07:30:06;;;;;;;;;;;14.20;47.10;;;;;;5067403;28;20044;-77
2022/02/18 07:32:32;;;;;;;6.82;2.28;;;14.30;46.90;;;;;;5066875;28;19904;-79
2022/02/18 07:34:58;;;;;;;;;;;14.60;46.60;;;;;;5067145;28;20025;-78
2022/02/18 07:37:23;;;;;;;7.00;2.40;;;14.70;45.80;;;;;;5067933;28;19908;-79
2022/02/18 07:39:49;;;;;;;;;;;14.80;43.40;;;;;;5068847;28;20075;-81
2022/02/18 07:42:15;;;;;;;6.90;1.48;;;14.50;43.80;;;;;;5068236;28;19917;-77
2022/02/18 07:44:40;;;;;;;;;;;14.20;44.10;;;;;;5068640;28;20039;-78
2022/02/18 07:47:06;;;;;;;7.25;1.00;;;14.30;44.40;;;;;;5066889;28;19977;-77
2022/02/18 07:49:32;;;;;;;;;;;14.30;44.20;;;;;;5068835;28;20099;-81
2022/02/18 07:51:58;;;;;;;7.72;0.85;;;14.30;43.70;;;;;;5067044;28;20006;-82
2022/02/18 07:54:23;;;;;;;;;;;14.30;42.90;;;;;;5067480;28;20037;-77
2022/02/18 07:56:49;;;;;;;6.22;1.00;;;14.20;43.00;;;;;;5067969;28;19908;-76
2022/02/18 07:59:14;;;;;;;;;;;14.00;43.40;;;;;;5067104;28;20035;-77
2022/02/18 08:01:40;;;;;;;7.57;1.35;;;14.00;43.40;;;;;;5066666;28;19917;-77
2022/02/18 08:04:05;;;;;;;;;;;13.70;43.50;;;;;;5067160;28;20021;-79
2022/02/18 08:06:31;;;;;;;2.60;0.60;;;13.30;44.60;;;;;;5066829;28;19912;-80
2022/02/18 08:08:57;;;;;;;;;;;13.20;45.20;;;;;;5068754;28;20028;-80
2022/02/18 08:11:23;;;;;;;5.22;1.10;;;13.00;46.10;;;;;;5066756;28;20365;-81
2022/02/18 08:13:48;;;;;;;;;;;13.10;45.50;;;;;;5068572;28;20033;-81
2022/02/18 08:16:14;;;;;;;6.82;1.08;;;13.20;44.00;;;;;;5067953;28;19915;-78
2022/02/18 08:18:43;;;;;;;5.18;1.52;;;13.30;44.70;;;;;;5067854;28;20039;-81
2022/02/18 08:21:13;;;;;;;7.50;1.13;;;13.50;45.70;;;;;;5067691;28;20052;-80
2022/02/18 08:23:40;;;;;;;5.15;0.95;;;13.50;47.30;;;;;;5067627;28;20017;-79
2022/02/18 08:26:06;;;;;;;13.45;1.35;;;13.80;47.90;;;;;;5067610;28;20111;-77
2022/02/18 08:28:32;;;;;;;;;;;13.90;46.90;;;;;;5070544;28;20169;-77
2022/02/18 08:30:57;;;;;;;5.30;1.08;;;14.10;46.70;;;;;;5071244;28;20465;-80
2022/02/18 08:33:23;;;;;;;;;;;14.20;46.10;;;;;;5071458;28;20043;-78
2022/02/18 08:35:49;;;;;;;8.80;1.42;;;14.40;46.40;;;;;;5071075;28;19915;-80
2022/02/18 08:38:14;;;;;;;8.15;1.17;;;14.70;46.30;;;;;;5071181;28;20489;-80
2022/02/18 08:40:40;;;;;;;4.28;1.00;;;14.70;45.70;;;;;;5071136;28;20036;-80
2022/02/18 08:43:07;;;;;;;6.20;1.02;;;15.00;44.40;;;;;;5071016;28;20485;-79
2022/02/18 08:45:33;;;;;;;10.05;1.50;;;15.10;45.20;;;;;;5071661;28;20033;-77
2022/02/18 08:47:59;;;;;;;5.55;1.15;;;15.30;43.40;;;;;;5069812;28;20496;-79
2022/02/18 08:50:25;;;;;;;;;;;15.30;43.20;;;;;;5070109;28;20025;-78
2022/02/18 08:52:51;;;;;;;3.93;1.10;;;15.40;44.00;;;;;;5070796;28;19908;-78
2022/02/18 08:55:17;;;;;;;;;;;15.30;43.40;;;;;;5069681;28;20035;-78
2022/02/18 08:57:44;;;;;;;4.97;1.17;;;15.40;43.60;;;;;;5069272;28;19908;-80
2022/02/18 09:00:11;;;;;;;5.25;1.60;;;15.50;43.40;;;;;;5070791;28;20021;-81
2022/02/18 09:02:38;;;;;;;4.45;0.90;;;15.60;44.00;;;;;;5069362;28;20033;-78
2022/02/18 09:05:05;;;;;;;7.68;1.35;;;15.70;43.10;;;;;;5070781;28;20051;-80
2022/02/18 09:07:31;;;;;;;7.57;1.42;;;15.90;42.30;;;;;;5070325;28;20039;-77
2022/02/18 09:09:57;;;;;;;9.55;1.42;;;16.10;41.60;;;;;;5070696;28;20040;-80
2022/02/18 09:12:24;;;;;;;6.82;1.08;;;16.30;39.30;;;;;;5070551;28;20028;-76
2022/02/18 09:14:50;;;;;;;5.65;1.10;;;16.40;38.80;;;;;;5069140;28;20031;-79
2022/02/18 09:17:15;;;;;;;8.25;1.23;;;16.60;38.70;;;;;;5071915;28;20024;-85
2022/02/18 09:19:41;;;;;;;6.53;1.00;;;16.80;38.00;;;;;;5070485;28;20039;-79
2022/02/18 09:22:07;;;;;;;7.72;1.65;;;16.60;38.30;;;;;;5069739;28;20079;-81
2022/02/18 09:24:33;;;;;;;6.13;1.10;;;16.70;37.90;;;;;;5068823;28;20063;-79
2022/02/18 09:26:59;;;;;;;4.47;1.00;;;16.90;38.00;;;;;;5068740;28;20145;-80
2022/02/18 09:29:26;;;;;;;4.18;1.05;;;17.00;37.20;;;;;;5069128;28;20031;-78
2022/02/18 09:31:53;;;;;;;5.38;1.05;;;17.10;36.70;;;;;;5070230;28;20078;-80
2022/02/18 09:34:20;;;;;;;4.25;0.93;;;17.00;36.50;;;;;;5070368;28;20036;-80
2022/02/18 09:36:46;;;;;;;6.05;0.70;;;17.10;36.10;;;;;;5070163;28;20025;-80
2022/02/18 09:39:12;;;;;;;8.02;1.20;;;17.10;34.80;;;;;;5068717;28;20055;-81
2022/02/18 09:41:41;;;;;;;7.38;1.55;;;17.00;36.20;;;;;;5070070;28;20048;-82
2022/02/18 09:44:09;;;;;;;7.13;1.05;;;17.10;35.40;;;;;;5068554;28;20039;-79
2022/02/18 09:46:38;;;;;;;5.72;0.82;;;16.90;35.50;;;;;;5070149;28;20020;-80
2022/02/18 09:49:04;;;;;;;4.82;1.00;;;16.70;35.60;;;;;;5069681;28;20032;-80
2022/02/18 09:51:31;;;;;;;5.43;0.90;;;16.80;36.30;;;;;;5069910;28;20059;-80
2022/02/18 09:53:58;;;;;;;5.15;1.20;;;16.70;37.10;;;;;;5068558;28;20036;-80
2022/02/18 09:56:25;;;;;;;6.05;1.45;;;16.80;36.80;;;;;;5068463;28;20028;-80
2022/02/18 09:58:52;;;;;;;3.67;0.80;;;17.00;36.50;;;;;;5069680;28;20133;-80
2022/02/18 10:01:18;;;;;;;7.53;1.23;;;16.90;36.70;;;;;;5067948;28;20035;-80
2022/02/18 10:03:44;;;;;;;4.63;0.80;;;17.00;37.20;;;;;;5069479;28;20028;-80
2022/02/18 10:06:10;;;;;;;11.98;2.30;;;17.00;37.10;;;;;;5068303;28;20032;-80
2022/02/18 10:08:47;;;;;;;8.10;1.83;;;17.00;37.20;;;;;;5069556;28;20039;-79
2022/02/18 10:11:12;;;;;;;6.57;1.25;;;16.50;36.90;;;;;;5069536;28;20123;-80
2022/02/18 10:13:40;;;;;;;7.00;1.20;;;15.90;38.30;;;;;;5068960;28;20115;-81
2022/02/18 10:16:21;;;;;;;5.85;1.10;;;15.40;39.40;;;;;;5068151;28;20024;-80
2022/02/18 10:18:56;;;;;;;6.70;1.23;;;15.10;40.80;;;;;;5063339;28;20040;-80
2022/02/18 10:21:24;;;;;;;31.63;1.60;;;14.80;41.40;;;;;;5068962;28;20044;-80
2022/02/18 10:23:51;;;;;;;5.75;1.10;;;14.40;42.40;;;;;;5069352;28;20036;-80
2022/02/18 10:26:34;;;;;;;6.63;1.23;;;14.10;43.70;;;;;;5069113;28;20028;-83
2022/02/18 10:28:59;;;;;;;8.23;1.38;;;13.80;43.70;;;;;;5068541;28;20031;-82
2022/02/18 10:31:25;;;;;;;;;;;13.40;44.30;;;;;;5068524;28;20029;-82
2022/02/18 10:34:01;;;;;;;7.50;1.48;;;12.90;45.60;;;;;;5068122;28;19908;-78
2022/02/18 10:36:44;;;;;;;10.60;1.48;;;12.80;47.30;;;;;;5069738;28;20511;-81
2022/02/18 10:39:36;;;;;;;4.78;1.27;;;12.60;48.60;;;;;;5069186;28;20071;-78
2022/02/18 10:42:03;;;;;;;4.97;0.88;;;12.40;49.00;;;;;;5069309;28;20036;-80
2022/02/18 10:44:30;;;;;;;5.90;1.33;;;12.20;49.50;;;;;;5069330;28;20021;-82
2022/02/18 10:46:56;;;;;;;7.05;1.65;;;12.10;49.60;;;;;;5069466;28;20107;-80
2022/02/18 10:49:23;;;;;;;;;;;12.00;50.10;;;;;;5069767;28;20107;-83
2022/02/18 10:51:50;;;;;;;9.15;1.67;;;12.00;50.40;;;;;;5068843;28;19944;-80
2022/02/18 10:54:16;;;;;;;6.97;1.63;;;12.00;51.60;;;;;;5067556;28;20055;-80
2022/02/18 10:56:42;;;;;;;6.82;0.90;;;12.00;51.80;;;;;;5069244;28;20378;-83
2022/02/18 10:59:08;;;;;;;;;;;11.90;50.80;;;;;;5069231;28;20487;-81
2022/02/18 11:01:43;;;;;;;6.93;0.85;;;12.00;51.20;;;;;;5067402;28;19948;-81
2022/02/18 11:04:10;;;;;;;6.90;1.05;;;11.90;51.60;;;;;;5067569;28;20136;-85
2022/02/18 11:06:37;;;;;;;9.85;1.25;;;11.90;51.70;;;;;;5069003;28;20032;-82
2022/02/18 11:09:08;;;;;;;6.53;1.17;;;11.90;52.00;;;;;;5069184;28;20024;-82
2022/02/18 11:11:36;;;;;;;10.15;1.10;;;12.00;52.00;;;;;;5067593;28;20024;-83
2022/02/18 11:14:04;;;;;;;9.38;1.92;;;12.10;52.50;;;;;;5068221;28;20033;-79
2022/02/18 11:16:32;;;;;;;7.13;1.55;;;12.20;53.40;;;;;;5066702;28;20516;-79
2022/02/18 11:18:58;;;;;;;10.25;1.50;;;12.40;52.90;;;;;;5068551;28;20032;-85
2022/02/18 11:21:26;;;;;;;;;;;12.40;52.10;;;;;;5067959;28;20386;-82
2022/02/18 11:23:52;;;;;;;7.90;1.52;;;12.40;51.40;;;;;;5068603;28;20021;-85
2022/02/18 11:26:20;;;;;;;5.32;1.00;;;12.40;52.30;;;;;;5068832;28;20037;-82
2022/02/18 11:28:47;;;;;;;14.00;1.63;;;12.40;52.60;;;;;;5067470;28;20024;-83
2022/02/18 11:31:26;;;;;;;5.10;1.30;;;12.30;52.20;;;;;;5067522;28;20587;-84
2022/02/18 11:34:23;;;;;;;6.25;1.30;;;12.10;53.10;;;;;;5068904;28;20025;-80
2022/02/18 11:37:26;;;;;;;7.63;1.10;;;12.20;50.90;;;;;;5068964;28;20570;-83
2022/02/18 11:40:17;;;;;;;12.55;0.85;;;12.10;51.90;;;;;;5067589;28;20475;-81
2022/02/18 11:43:01;;;;;;;6.82;1.00;;;12.10;51.70;;;;;;5069066;28;20558;-84
2022/02/18 11:45:27;;;;;;;7.90;1.05;;;12.10;51.60;;;;;;5068824;28;20021;-82
2022/02/18 11:47:53;;;;;;;;;;;12.10;50.90;;;;;;5069259;28;20097;-85
2022/02/18 11:50:29;;;;;;;5.85;1.50;;;12.10;50.60;;;;;;5067418;28;20330;-79
2022/02/18 11:52:55;;;;;;;5.13;1.33;;;12.00;54.00;;;;;;5068606;28;20464;-83
2022/02/18 11:55:27;;;;;;;7.85;1.40;;;11.90;55.90;;;;;;5068786;28;20039;-81
2022/02/18 11:58:01;;;;;;;7.88;1.55;;;11.80;59.60;;;;;;5068759;28;20021;-80
2022/02/18 12:00:42;;;;;;;8.48;1.67;;;11.80;60.30;;;;;;5067580;28;20078;-83
2022/02/18 12:03:20;;;;;;;7.47;1.15;;;12.00;61.00;;;;;;5070180;28;20115;-82
2022/02/18 12:06:04;;;;;;;6.28;1.45;;;12.30;59.80;;;;;;5072847;28;20052;-84
2022/02/18 12:08:32;;;;;;;6.13;1.33;;;12.30;59.40;;;;;;5072495;28;20033;-80
2022/02/18 12:10:58;;;;;;;4.88;1.35;;;12.40;59.60;;;;;;5072174;28;20107;-83
2022/02/18 12:13:23;;;;;;;;;;;12.30;58.70;;;;;;5071201;28;20169;-84
2022/02/18 12:15:49;;;;;;;5.63;1.17;;;12.30;57.50;;;;;;5070963;28;19939;-81
2022/02/18 12:18:21;;;;;;;;;;;12.20;54.00;;;;;;5072572;28;20064;-80
2022/02/18 12:20:46;;;;;;;6.95;1.20;;;12.10;52.90;;;;;;5072109;28;20738;-79
2022/02/18 12:23:22;;;;;;;;;;;11.80;52.40;;;;;;5072381;28;20127;-83
2022/02/18 12:25:48;;;;;;;7.25;0.98;;;11.50;53.40;;;;;;5071094;28;20364;-78
2022/02/18 12:28:17;;;;;;;;;;;11.50;54.60;;;;;;5071847;28;20029;-81
2022/02/18 12:30:56;;;;;;;8.43;1.35;;;11.40;56.90;;;;;;5072149;28;19936;-80
2022/02/18 12:33:22;;;;;;;10.95;2.22;;;11.50;60.30;;;;;;5071743;28;20027;-78
2022/02/18 12:35:48;;;;;;;7.53;1.40;;;11.60;60.90;;;;;;5070612;28;20409;-81
2022/02/18 12:38:15;;;;;;;;;;;11.80;59.30;;;;;;5072425;28;20067;-80
2022/02/18 12:40:42;;;;;;;6.80;1.50;;;12.10;65.30;;;;;;5071683;28;19912;-80
2022/02/18 12:43:19;;;;;;;9.50;1.92;;;12.20;65.30;;;;;;5071732;28;20040;-82
2022/02/18 12:45:50;;;;;;;8.27;1.30;;;12.40;64.30;;;;;;5070513;28;20488;-81
2022/02/18 12:48:35;;;;;;;9.00;1.50;;;12.50;62.70;;;;;;5071801;28;20044;-81
2022/02/18 12:51:07;;;;;;;11.57;2.60;;;12.70;60.70;;;;;;5072138;28;20028;-80
2022/02/18 12:53:33;;;;;;;14.10;2.35;;;12.70;61.00;;;;;;5071473;28;20029;-80
2022/02/18 12:55:59;;;;;;;;;;;12.80;61.30;;;;;;5072046;28;20392;-82
2022/02/18 12:58:25;;;;;;;10.32;1.90;;;12.80;63.10;;;;;;5071307;28;20404;-81
2022/02/18 13:00:50;;;;;;;;;;;12.80;64.80;;;;;;5071973;28;20580;-81
2022/02/18 13:03:16;;;;;;;10.85;2.50;;;12.80;62.80;;;;;;5069972;28;19909;-82
2022/02/18 13:05:41;;;;;;;;;;;12.50;62.90;;;;;;5072306;28;20048;-80
2022/02/18 13:08:24;;;;;;;17.25;6.25;;;12.30;64.60;;;;;;5069995;28;20387;-84
2022/02/18 13:10:53;;;;;;;11.52;2.55;;;12.10;68.40;;;;;;5071539;28;20038;-80
2022/02/18 13:13:24;;;;;;;12.38;2.28;;;12.00;68.40;;;;;;5070735;28;20070;-79